Time;durP1;ratioP1;P1;durP2;ratioP2;P2;SDS_P1;SDS_P2;PMS_P1;PMS_P2;Temp;Humidity;BMP_temperature;BMP_pressure;BME280_temperature;BME280_humidity;BME280_pressure;Samples;Min_cycle;Max_cycle;Signal;HPM_P1;HPM_P2
2022/04/19 00:00:37;;;;;;;13.32;5.43;;;;;;;;;;5122275;28;20031;-79
2022/04/19 00:03:04;;;;;;;13.15;4.65;;;;;;;;;;5115518;28;20011;-80
2022/04/19 00:05:30;;;;;;;12.98;5.43;;;;;;;;;;5119228;28;20049;-79
2022/04/19 00:07:55;;;;;;;13.52;5.40;;;;;;;;;;5118923;27;20023;-80
2022/04/19 00:10:21;;;;;;;13.10;5.53;;;;;;;;;;5115509;28;20042;-79
2022/04/19 00:12:47;;;;;;;14.45;5.40;;;;;;;;;;5117759;28;20023;-79
2022/04/19 00:15:13;;;;;;;16.30;6.05;;;;;;;;;;5117453;28;20341;-80
2022/04/19 00:17:38;;;;;;;10.45;5.47;;;;;;;;;;5113833;28;20043;-80
2022/04/19 00:20:04;;;;;;;11.48;4.88;;;;;;;;;;5123311;28;20149;-80
2022/04/19 00:22:30;;;;;;;14.93;5.80;;;;;;;;;;5116845;28;20024;-79
2022/04/19 00:24:56;;;;;;;12.23;4.50;;;;;;;;;;5098630;28;20035;-80
2022/04/19 00:27:22;;;;;;;9.93;4.55;;;;;;;;;;5115103;28;20397;-80
2022/04/19 00:29:49;;;;;;;10.27;5.13;;;;;;;;;;5114849;28;20073;-79
2022/04/19 00:32:15;;;;;;;11.35;4.70;;;;;;;;;;5113490;28;20035;-80
2022/04/19 00:34:40;;;;;;;12.88;4.82;;;;;;;;;;5114589;28;20028;-80
2022/04/19 00:37:06;;;;;;;7.93;4.30;;;;;;;;;;5095978;28;20034;-81
2022/04/19 00:39:31;;;;;;;7.65;4.18;;;;;;;;;;5102950;28;20028;-79
2022/04/19 00:41:57;;;;;;;11.10;4.50;;;;;;;;;;5117621;28;20027;-80
2022/04/19 00:44:23;;;;;;;8.57;4.13;;;;;;;;;;5114570;28;20028;-80
2022/04/19 00:46:52;;;;;;;11.60;4.47;;;;;;;;;;5097000;28;20019;-79
2022/04/19 00:49:18;;;;;;;8.90;4.60;;;;;;;;;;5113395;28;20566;-79
2022/04/19 00:51:44;;;;;;;6.13;3.55;;;;;;;;;;5114470;28;20039;-80
2022/04/19 00:54:11;;;;;;;11.27;3.88;;;;;;;;;;5120373;28;20031;-80
2022/04/19 00:56:36;;;;;;;10.18;5.18;;;;;;;;;;5116569;28;20372;-80
2022/04/19 00:59:02;;;;;;;13.18;5.95;;;;;;;;;;5114445;28;20032;-80
2022/04/19 01:01:27;;;;;;;15.00;6.45;;;;;;;;;;5112997;28;20060;-80
2022/04/19 01:03:53;;;;;;;15.32;7.88;;;;;;;;;;5114792;28;20034;-80
2022/04/19 01:06:18;;;;;;;18.50;8.68;;;;;;;;;;5114659;28;20429;-80
2022/04/19 01:08:44;;;;;;;21.85;9.43;;;;;;;;;;5114535;28;20456;-80
2022/04/19 01:14:13;;;;;;;17.92;8.88;;;;;;;;;;5099191;28;20054;-80
2022/04/19 01:16:41;;;;;;;21.35;9.23;;;;;;;;;;5078702;28;20032;-80
2022/04/19 01:19:17;;;;;;;24.17;9.73;;;;;;;;;;5074873;28;20368;-80
2022/04/19 01:21:49;;;;;;;18.95;9.25;;;;;;;;;;5113424;28;20024;-80
2022/04/19 01:24:15;;;;;;;21.52;9.45;;;;;;;;;;5114339;28;20032;-80
2022/04/19 01:26:41;;;;;;;22.05;10.15;;;;;;;;;;5096111;28;20132;-80
2022/04/19 01:29:08;;;;;;;26.15;11.27;;;;;;;;;;5113257;28;20033;-80
2022/04/19 01:31:33;;;;;;;25.02;11.18;;;;;;;;;;5114252;28;20110;-80
2022/04/19 01:33:59;;;;;;;20.75;9.48;;;;;;;;;;5114062;28;20474;-80
2022/04/19 01:36:24;;;;;;;23.00;8.88;;;;;;;;;;5125193;28;20016;-80
2022/04/19 01:38:50;;;;;;;20.98;7.93;;;;;;;;;;5113905;28;20444;-80
2022/04/19 01:41:16;;;;;;;16.80;7.55;;;;;;;;;;5112881;28;20024;-80
2022/04/19 01:43:43;;;;;;;16.48;7.68;;;;;;;;;;5114047;28;20541;-80
2022/04/19 01:46:08;;;;;;;16.80;7.45;;;;;;;;;;5113766;28;20081;-81
2022/04/19 01:48:35;;;;;;;15.55;6.82;;;;;;;;;;5117554;28;20444;-80
2022/04/19 01:51:01;;;;;;;11.00;5.72;;;;;;;;;;5118102;28;20032;-79
2022/04/19 01:53:27;;;;;;;13.10;5.80;;;;;;;;;;5117795;28;20089;-80
2022/04/19 01:55:52;;;;;;;11.60;5.72;;;;;;;;;;5119743;28;20027;-79
2022/04/19 01:58:18;;;;;;;12.77;5.45;;;;;;;;;;5122920;28;20124;-80
2022/04/19 02:00:43;;;;;;;9.80;5.13;;;;;;;;;;5117224;28;20028;-80
2022/04/19 02:03:08;;;;;;;12.55;5.55;;;;;;;;;;5117375;28;20034;-80
2022/04/19 02:05:34;;;;;;;11.27;5.03;;;;;;;;;;5117877;27;20440;-80
2022/04/19 02:07:59;;;;;;;9.85;5.13;;;;;;;;;;5117225;28;20028;-81
2022/04/19 02:10:25;;;;;;;12.38;6.32;;;;;;;;;;5117660;28;20384;-80
2022/04/19 02:12:51;;;;;;;18.52;6.80;;;;;;;;;;5117169;28;20509;-80
2022/04/19 02:15:17;;;;;;;21.30;9.50;;;;;;;;;;5115993;28;20038;-80
2022/04/19 02:17:48;;;;;;;21.88;11.05;;;;;;;;;;5126427;28;20078;-80
2022/04/19 02:20:16;;;;;;;28.00;11.32;;;;;;;;;;5117297;28;20049;-80
2022/04/19 02:22:42;;;;;;;24.17;10.93;;;;;;;;;;5116989;28;20081;-80
2022/04/19 02:25:09;;;;;;;27.63;12.63;;;;;;;;;;5116944;28;20023;-80
2022/04/19 02:27:34;;;;;;;22.77;11.02;;;;;;;;;;5116854;28;20027;-80
2022/04/19 02:30:03;;;;;;;22.13;9.80;;;;;;;;;;5116831;27;20352;-80
2022/04/19 02:32:28;;;;;;;18.42;9.18;;;;;;;;;;5117071;28;20433;-80
2022/04/19 02:34:54;;;;;;;20.90;8.57;;;;;;;;;;5116806;28;20019;-80
2022/04/19 02:37:20;;;;;;;19.80;8.52;;;;;;;;;;5116709;28;20019;-81
2022/04/19 02:39:46;;;;;;;22.00;8.20;;;;;;;;;;5122081;28;20076;-81
2022/04/19 02:42:12;;;;;;;22.45;9.32;;;;;;;;;;5116657;28;20023;-81
2022/04/19 02:44:37;;;;;;;24.50;11.02;;;;;;;;;;5116596;28;20511;-81
2022/04/19 02:47:04;;;;;;;24.42;12.13;;;;;;;;;;5116572;28;20027;-81
2022/04/19 02:49:29;;;;;;;35.25;12.80;;;;;;;;;;5116408;28;20036;-81
2022/04/19 02:51:55;;;;;;;36.60;14.27;;;;;;;;;;5116469;28;20062;-80
2022/04/19 02:54:21;;;;;;;25.63;11.10;;;;;;;;;;5115501;28;20455;-81
2022/04/19 02:56:47;;;;;;;18.17;8.13;;;;;;;;;;5115112;28;20414;-80
2022/04/19 02:59:13;;;;;;;17.90;8.43;;;;;;;;;;5128753;28;20027;-80
2022/04/19 03:01:40;;;;;;;19.33;9.05;;;;;;;;;;5116697;28;20031;-81
2022/04/19 03:04:05;;;;;;;25.70;8.57;;;;;;;;;;5116453;28;20083;-81
2022/04/19 03:06:31;;;;;;;25.25;9.93;;;;;;;;;;5116065;28;20031;-81
2022/04/19 03:08:56;;;;;;;27.02;9.90;;;;;;;;;;5114842;28;20085;-81
2022/04/19 03:11:22;;;;;;;24.30;9.93;;;;;;;;;;5116348;28;20051;-81
2022/04/19 03:13:48;;;;;;;26.02;8.60;;;;;;;;;;5115804;28;20455;-81
2022/04/19 03:16:14;;;;;;;19.67;9.23;;;;;;;;;;5115001;28;20049;-81
2022/04/19 03:18:42;;;;;;;21.17;8.98;;;;;;;;;;5118430;28;20050;-80
2022/04/19 03:21:11;;;;;;;16.83;8.05;;;;;;;;;;5125312;28;20224;-81
2022/04/19 03:29:08;;;;;;;27.52;8.38;;;;;;;;;;5114760;28;20051;-81
2022/04/19 03:31:34;;;;;;;19.13;8.27;;;;;;;;;;5114858;28;20431;-80
2022/04/19 03:34:03;;;;;;;19.45;8.32;;;;;;;;;;5114506;28;20031;-81
2022/04/19 03:36:29;;;;;;;21.92;7.30;;;;;;;;;;5115611;28;20112;-80
2022/04/19 03:38:54;;;;;;;15.85;7.25;;;;;;;;;;5115460;28;20066;-80
2022/04/19 03:41:20;;;;;;;17.75;6.95;;;;;;;;;;5126097;28;20031;-81
2022/04/19 03:43:46;;;;;;;17.52;6.90;;;;;;;;;;5115473;28;20042;-81
2022/04/19 03:46:11;;;;;;;13.60;6.85;;;;;;;;;;5115623;28;20032;-80
2022/04/19 03:48:37;;;;;;;16.23;6.93;;;;;;;;;;5115524;28;20467;-81
2022/04/19 03:51:03;;;;;;;19.42;7.70;;;;;;;;;;5115344;28;20028;-80
2022/04/19 03:53:29;;;;;;;15.68;7.07;;;;;;;;;;5115245;28;20039;-81
2022/04/19 03:55:55;;;;;;;11.63;6.43;;;;;;;;;;5113796;28;20028;-81
2022/04/19 03:58:21;;;;;;;12.98;6.45;;;;;;;;;;5113947;28;20035;-80
2022/04/19 04:00:48;;;;;;;12.38;6.00;;;;;;;;;;5117236;28;20416;-81
2022/04/19 04:03:13;;;;;;;17.48;6.32;;;;;;;;;;5115959;28;20023;-81
2022/04/19 04:08:23;;;;;;;10.63;4.75;;;;;;;;;;5115038;28;20150;-81
2022/04/19 04:10:49;;;;;;;13.25;5.65;;;;;;;;;;5112455;28;20067;-81
2022/04/19 04:13:14;;;;;;;14.10;5.50;;;;;;;;;;5114870;28;20035;-89
2022/04/19 04:15:40;;;;;;;13.20;6.47;;;;;;;;;;5098426;28;20448;-88
2022/04/19 04:18:06;;;;;;;10.05;4.95;;;;;;;;;;5117475;28;20031;-84
2022/04/19 04:20:31;;;;;;;9.80;5.00;;;;;;;;;;5114579;28;20027;-82
2022/04/19 04:22:57;;;;;;;10.00;5.38;;;;;;;;;;5118184;28;20065;-83
2022/04/19 04:25:22;;;;;;;12.20;5.88;;;;;;;;;;5113450;28;20066;-83
2022/04/19 04:27:48;;;;;;;18.75;5.80;;;;;;;;;;5114775;28;20032;-83
2022/04/19 04:30:13;;;;;;;11.90;5.47;;;;;;;;;;5113996;28;20023;-82
2022/04/19 04:32:39;;;;;;;11.00;5.55;;;;;;;;;;5114525;28;20119;-83
2022/04/19 04:35:06;;;;;;;16.23;6.43;;;;;;;;;;5115366;28;20028;-82
2022/04/19 04:37:33;;;;;;;13.07;6.35;;;;;;;;;;5113714;28;20088;-84
2022/04/19 04:39:58;;;;;;;14.23;5.47;;;;;;;;;;5114508;28;20036;-83
2022/04/19 04:42:24;;;;;;;14.43;5.18;;;;;;;;;;5120462;28;20069;-82
2022/04/19 04:44:49;;;;;;;14.73;5.68;;;;;;;;;;5139261;27;20059;-84
2022/04/19 04:49:59;;;;;;;10.52;5.38;;;;;;;;;;5121372;28;20128;-80
2022/04/19 04:52:24;;;;;;;15.63;6.00;;;;;;;;;;5135245;28;20043;-84
2022/04/19 04:54:50;;;;;;;15.48;6.45;;;;;;;;;;5124306;27;20031;-85
2022/04/19 04:57:15;;;;;;;12.40;5.95;;;;;;;;;;5102395;28;20038;-83
2022/04/19 04:59:42;;;;;;;10.23;5.03;;;;;;;;;;5102476;28;20511;-80
2022/04/19 05:02:08;;;;;;;11.07;5.50;;;;;;;;;;5096162;28;20570;-82
2022/04/19 05:04:33;;;;;;;12.60;5.82;;;;;;;;;;5106554;28;20024;-81
2022/04/19 05:07:30;;;;;;;13.35;6.35;;;;;;;;;;5095001;28;20432;-81
2022/04/19 05:09:58;;;;;;;11.93;5.63;;;;;;;;;;5106485;28;20044;-79
2022/04/19 05:12:24;;;;;;;10.85;6.05;;;;;;;;;;5099980;28;20031;-79
2022/04/19 05:14:50;;;;;;;15.77;6.47;;;;;;;;;;5102829;27;20031;-79
2022/04/19 05:17:18;;;;;;;13.93;6.35;;;;;;;;;;5098177;28;20579;-78
2022/04/19 05:19:46;;;;;;;13.20;6.18;;;;;;;;;;5117411;28;20035;-88
2022/04/19 05:22:12;;;;;;;11.57;5.82;;;;;;;;;;5104754;28;20040;-89
2022/04/19 05:24:38;;;;;;;13.50;5.95;;;;;;;;;;5069523;28;20410;-88
2022/04/19 05:27:05;;;;;;;11.50;5.75;;;;;;;;;;5106480;28;20045;-87
2022/04/19 05:29:30;;;;;;;13.43;6.20;;;;;;;;;;5100468;28;20089;-88
2022/04/19 05:31:56;;;;;;;12.18;6.35;;;;;;;;;;5125434;27;20031;-89
2022/04/19 05:34:23;;;;;;;15.73;6.78;;;;;;;;;;5114162;28;20024;-87
2022/04/19 05:36:48;;;;;;;14.60;6.75;;;;;;;;;;5108920;28;20035;-86
2022/04/19 05:39:15;;;;;;;15.65;7.03;;;;;;;;;;5110290;28;20110;-90
2022/04/19 05:41:41;;;;;;;26.30;10.20;;;;;;;;;;5108064;28;20043;-88
2022/04/19 05:44:07;;;;;;;16.23;8.05;;;;;;;;;;5120926;28;20023;-89
2022/04/19 05:46:51;;;;;;;20.33;9.45;;;;;;;;;;5133898;27;20031;-89
2022/04/19 05:49:30;;;;;;;16.20;8.65;;;;;;;;;;5107013;28;20382;-90
2022/04/19 05:51:55;;;;;;;105.63;52.35;;;;;;;;;;5107401;27;20438;-81
2022/04/19 05:54:26;;;;;;;20.33;9.43;;;;;;;;;;5111005;27;20031;-80
2022/04/19 05:56:51;;;;;;;26.92;11.93;;;;;;;;;;5081470;28;20044;-83
2022/04/19 05:59:17;;;;;;;19.73;9.25;;;;;;;;;;5102194;27;20097;-85
2022/04/19 06:07:11;;;;;;;18.33;7.90;;;;;;;;;;5103599;28;20460;-80
2022/04/19 06:09:36;;;;;;;15.38;8.82;;;;;;;;;;5113840;28;20032;-86
2022/04/19 06:12:02;;;;;;;12.80;6.70;;;;;;;;;;5096265;28;20048;-82
2022/04/19 06:14:27;;;;;;;14.55;7.97;;;;;;;;;;5116825;27;20107;-82
2022/04/19 06:16:53;;;;;;;12.85;7.03;;;;;;;;;;5106503;28;20058;-77
2022/04/19 06:19:18;;;;;;;12.77;7.32;;;;;;;;;;5101798;28;20036;-83
2022/04/19 06:21:45;;;;;;;12.73;7.07;;;;;;;;;;5104598;28;20083;-81
2022/04/19 06:24:10;;;;;;;11.32;6.57;;;;;;;;;;5106347;28;20024;-83
2022/04/19 06:26:36;;;;;;;13.43;7.65;;;;;;;;;;5115376;28;20091;-80
2022/04/19 06:29:03;;;;;;;12.68;7.25;;;;;;;;;;5106564;28;20092;-77
2022/04/19 06:31:28;;;;;;;13.60;7.10;;;;;;;;;;5106786;27;20039;-81
2022/04/19 06:33:54;;;;;;;11.95;7.10;;;;;;;;;;5103787;28;20035;-81
2022/04/19 06:36:19;;;;;;;13.75;6.78;;;;;;;;;;5105776;28;20110;-82
2022/04/19 06:38:45;;;;;;;9.73;6.22;;;;;;;;;;5111537;28;20039;-82
2022/04/19 06:41:14;;;;;;;19.70;9.15;;;;;;;;;;5103257;28;20024;-82
2022/04/19 06:43:39;;;;;;;8.70;5.45;;;;;;;;;;5108961;28;20020;-80
2022/04/19 06:46:08;;;;;;;8.77;4.78;;;;;;;;;;5107333;27;20433;-78
2022/04/19 06:48:34;;;;;;;7.30;4.70;;;;;;;;;;5110727;28;20136;-79
2022/04/19 06:51:00;;;;;;;10.95;5.55;;;;;;;;;;5110543;28;20058;-81
2022/04/19 06:53:29;;;;;;;7.70;4.63;;;;;;;;;;5099313;28;20047;-79
2022/04/19 06:55:56;;;;;;;8.88;5.07;;;;;;;;;;5099190;28;20028;-78
2022/04/19 06:58:22;;;;;;;7.78;5.32;;;;;;;;;;5090121;28;20040;-74
2022/04/19 07:00:47;;;;;;;12.27;6.10;;;;;;;;;;5106511;27;20035;-82
2022/04/19 07:03:13;;;;;;;9.88;6.13;;;;;;;;;;5110599;28;20030;-81
2022/04/19 07:05:39;;;;;;;11.95;6.20;;;;;;;;;;5113177;28;20045;-80
2022/04/19 07:08:05;;;;;;;9.55;5.85;;;;;;;;;;5118985;28;20043;-81
2022/04/19 07:10:31;;;;;;;11.93;6.50;;;;;;;;;;5112693;28;20026;-82
2022/04/19 07:12:56;;;;;;;18.70;9.00;;;;;;;;;;5109815;28;20440;-79
2022/04/19 07:15:22;;;;;;;13.75;6.30;;;;;;;;;;5110236;28;20062;-80
2022/04/19 07:17:47;;;;;;;14.25;6.40;;;;;;;;;;5110204;28;20409;-82
2022/04/19 07:28:27;;;;;;;13.48;7.78;;;;;;;;;;5115563;28;20033;-80
2022/04/19 07:30:53;;;;;;;12.85;7.30;;;;;;;;;;5111884;28;20046;-82
2022/04/19 07:33:19;;;;;;;13.80;6.80;;;;;;;;;;5112430;28;20031;-79
2022/04/19 07:35:45;;;;;;;16.00;7.20;;;;;;;;;;5110739;28;20032;-86
2022/04/19 07:38:12;;;;;;;12.60;6.78;;;;;;;;;;5109140;27;20027;-84
2022/04/19 07:40:37;;;;;;;15.68;7.07;;;;;;;;;;5109446;27;20043;-86
2022/04/19 07:43:05;;;;;;;12.10;7.03;;;;;;;;;;5097003;28;20032;-88
2022/04/19 07:45:49;;;;;;;13.75;7.30;;;;;;;;;;5101756;27;20042;-89
2022/04/19 07:48:16;;;;;;;12.60;6.75;;;;;;;;;;5118064;28;20067;-91
2022/04/19 07:50:44;;;;;;;12.52;7.20;;;;;;;;;;5118638;28;20028;-89
2022/04/19 07:53:10;;;;;;;15.38;9.13;;;;;;;;;;5114363;28;20065;-87
2022/04/19 07:55:36;;;;;;;13.15;8.15;;;;;;;;;;5095204;28;20028;-89
2022/04/19 07:58:02;;;;;;;14.25;7.95;;;;;;;;;;5114759;28;20461;-86
2022/04/19 08:00:31;;;;;;;14.48;6.85;;;;;;;;;;5091947;28;20050;-85
2022/04/19 08:02:57;;;;;;;20.92;10.82;;;;;;;;;;5101541;28;20027;-86
2022/04/19 08:05:25;;;;;;;12.38;6.95;;;;;;;;;;5092724;28;20034;-80
2022/04/19 08:07:51;;;;;;;11.75;6.88;;;;;;;;;;5087186;28;20070;-84
2022/04/19 08:10:17;;;;;;;14.45;6.82;;;;;;;;;;5088532;28;20059;-81
2022/04/19 08:12:43;;;;;;;13.70;6.90;;;;;;;;;;5096720;27;20032;-82
2022/04/19 08:15:09;;;;;;;12.13;6.75;;;;;;;;;;5108126;28;20027;-83
2022/04/19 08:17:38;;;;;;;14.23;7.53;;;;;;;;;;5109011;28;20036;-79
2022/04/19 08:20:05;;;;;;;10.63;6.65;;;;;;;;;;5110160;28;20437;-83
2022/04/19 08:22:30;;;;;;;10.02;6.95;;;;;;;;;;5093969;28;20114;-81
2022/04/19 08:24:56;;;;;;;11.93;7.70;;;;;;;;;;5102630;28;20135;-84
2022/04/19 08:27:23;;;;;;;13.35;7.03;;;;;;;;;;5120242;28;20129;-81
2022/04/19 08:29:48;;;;;;;13.10;7.95;;;;;;;;;;5109733;28;20126;-86
2022/04/19 08:32:14;;;;;;;11.52;7.32;;;;;;;;;;5104190;28;20081;-84
2022/04/19 08:34:39;;;;;;;10.82;7.10;;;;;;;;;;5096341;28;20065;-83
2022/04/19 08:37:05;;;;;;;31.83;15.95;;;;;;;;;;5093610;28;20082;-86
2022/04/19 08:39:31;;;;;;;22.85;12.45;;;;;;;;;;5090801;28;20065;-84
2022/04/19 08:41:57;;;;;;;14.93;8.77;;;;;;;;;;5092722;28;20112;-86
2022/04/19 08:44:23;;;;;;;13.88;7.70;;;;;;;;;;5092359;28;20362;-83
2022/04/19 08:46:49;;;;;;;11.88;7.38;;;;;;;;;;5098436;28;20350;-83
2022/04/19 08:49:19;;;;;;;17.88;9.88;;;;;;;;;;5102150;28;20365;-86
2022/04/19 08:51:44;;;;;;;;;;;;;;;;;;5075564;28;20459;-80
2022/04/19 08:59:41;;;;;;;106.55;68.85;;;;;;;;;;5115744;27;20166;-85
2022/04/19 09:02:07;;;;;;;82.93;17.52;;;;;;;;;;5092562;28;20040;-85
2022/04/19 09:04:33;;;;;;;13.43;8.10;;;;;;;;;;5111764;28;20035;-82
2022/04/19 09:06:59;;;;;;;13.60;7.03;;;;;;;;;;5124452;28;20024;-79
2022/04/19 09:09:30;;;;;;;16.48;7.03;;;;;;;;;;5099243;28;20037;-81
2022/04/19 09:12:09;;;;;;;16.45;8.00;;;;;;;;;;5118924;28;20039;-80
2022/04/19 09:14:35;;;;;;;11.15;6.63;;;;;;;;;;5116372;28;20024;-80
2022/04/19 09:17:06;;;;;;;14.27;7.50;;;;;;;;;;5118499;28;20046;-82
2022/04/19 09:19:31;;;;;;;12.40;7.72;;;;;;;;;;5100098;28;20637;-82
2022/04/19 09:21:57;;;;;;;13.10;6.97;;;;;;;;;;5114740;28;20035;-79
2022/04/19 09:24:23;;;;;;;106.75;16.45;;;;;;;;;;5116923;28;20137;-79
2022/04/19 09:26:48;;;;;;;3.35;1.73;;;;;;;;;;5121946;28;20108;-81
2022/04/19 09:29:24;;;;;;;10.38;6.38;;;;;;;;;;5097867;28;20486;-83
2022/04/19 09:31:52;;;;;;;9.30;5.75;;;;;;;;;;5118211;28;20072;-80
2022/04/19 09:34:29;;;;;;;10.93;5.22;;;;;;;;;;5116427;28;20054;-79
2022/04/19 09:37:13;;;;;;;8.90;5.03;;;;;;;;;;5117348;28;20062;-80
2022/04/19 09:39:44;;;;;;;7.90;5.20;;;;;;;;;;5112169;27;20127;-78
2022/04/19 09:42:26;;;;;;;7.90;5.13;;;;;;;;;;5114481;28;20084;-84
2022/04/19 09:44:52;;;;;;;12.32;6.68;;;;;;;;;;5124949;28;20028;-87
2022/04/19 09:47:17;;;;;;;12.15;5.82;;;;;;;;;;5126416;28;20036;-86
2022/04/19 09:49:53;;;;;;;11.90;6.38;;;;;;;;;;5111799;28;20122;-90
2022/04/19 09:52:28;;;;;;;10.57;5.20;;;;;;;;;;5097586;28;20117;-84
2022/04/19 09:55:01;;;;;;;8.85;5.10;;;;;;;;;;5096084;28;20652;-85
2022/04/19 09:57:28;;;;;;;9.80;5.30;;;;;;;;;;5115759;28;20028;-84
2022/04/19 09:59:54;;;;;;;9.52;5.60;;;;;;;;;;5119554;28;20053;-81
2022/04/19 10:10:33;;;;;;;10.05;4.85;;;;;;;;;;5102257;28;20337;-79
2022/04/19 10:13:09;;;;;;;7.60;4.68;;;;;;;;;;5128228;28;20023;-80
2022/04/19 10:15:42;;;;;;;9.10;4.82;;;;;;;;;;5119892;28;20039;-85
2022/04/19 10:18:08;;;;;;;11.90;5.80;;;;;;;;;;5089671;28;20028;-81
2022/04/19 10:20:58;;;;;;;10.45;4.70;;;;;;;;;;5124860;28;20114;-86
2022/04/19 10:23:39;;;;;;;;;;;;;;;;;;5111160;28;20043;-85
2022/04/19 10:26:22;;;;;;;13.13;4.53;;;;;;;;;;5116047;28;20331;-87
2022/04/19 10:28:56;;;;;;;12.95;4.70;;;;;;;;;;5105401;28;20035;-84
2022/04/19 10:31:34;;;;;;;12.02;4.95;;;;;;;;;;5102190;28;20028;-84
2022/04/19 10:34:04;;;;;;;8.80;4.88;;;;;;;;;;5097091;28;20040;-85
2022/04/19 10:36:42;;;;;;;11.10;5.45;;;;;;;;;;5099956;28;20351;-89
2022/04/19 10:39:18;;;;;;;12.23;4.85;;;;;;;;;;5100060;28;20077;-90
2022/04/19 10:42:04;;;;;;;10.48;5.18;;;;;;;;;;5102165;28;20445;-90
2022/04/19 10:44:32;;;;;;;16.88;6.38;;;;;;;;;;5097035;28;20024;-89
2022/04/19 10:47:08;;;;;;;13.05;4.90;;;;;;;;;;5098742;28;20024;-77
2022/04/19 10:50:05;;;;;;;11.63;5.97;;;;;;;;;;5095463;28;20032;-78
2022/04/19 10:52:39;;;;;;;10.88;5.38;;;;;;;;;;5128959;27;20036;-77
2022/04/19 10:55:18;;;;;;;24.23;9.45;;;;;;;;;;5126677;27;20311;-79
2022/04/19 11:00:42;;;;;;;6.88;3.80;;;;;;;;;;5091500;28;20480;-79
2022/04/19 11:03:13;;;;;;;9.75;4.28;;;;;;;;;;5093366;28;20025;-80
2022/04/19 11:05:43;;;;;;;10.57;4.68;;;;;;;;;;5092469;28;20028;-79
2022/04/19 11:08:22;;;;;;;9.40;4.70;;;;;;;;;;5097317;28;20059;-79
2022/04/19 11:10:48;;;;;;;10.32;5.63;;;;;;;;;;5126959;27;20122;-80
2022/04/19 11:13:13;;;;;;;9.20;4.78;;;;;;;;;;5094495;28;20131;-78
2022/04/19 11:15:39;;;;;;;20.60;9.35;;;;;;;;;;5121772;27;20035;-80
2022/04/19 11:18:24;;;;;;;10.40;4.78;;;;;;;;;;5095825;28;20093;-83
2022/04/19 11:20:51;;;;;;;8.15;4.28;;;;;;;;;;5097618;28;20035;-82
2022/04/19 11:23:24;;;;;;;7.50;4.05;;;;;;;;;;5076948;28;20384;-81
2022/04/19 11:25:51;;;;;;;7.13;4.50;;;;;;;;;;5097973;28;20035;-82
2022/04/19 11:28:27;;;;;;;8.15;4.22;;;;;;;;;;5085070;28;20024;-81
2022/04/19 11:30:55;;;;;;;10.85;4.60;;;;;;;;;;5094615;28;20294;-81
2022/04/19 11:33:22;;;;;;;12.68;6.70;;;;;;;;;;5094778;28;20047;-81
2022/04/19 11:36:08;;;;;;;10.02;4.53;;;;;;;;;;5099304;28;20115;-84
2022/04/19 11:38:54;;;;;;;9.02;4.35;;;;;;;;;;5094272;28;20032;-81
2022/04/19 11:46:49;;;;;;;9.85;4.38;;;;;;;;;;5102379;28;20111;-84
2022/04/19 11:49:34;;;;;;;9.57;3.72;;;;;;;;;;5108726;28;20032;-86
2022/04/19 11:52:11;;;;;;;7.35;4.28;;;;;;;;;;5103113;28;20399;-85
2022/04/19 11:54:36;;;;;;;6.68;3.75;;;;;;;;;;5107599;28;20035;-88
2022/04/19 11:57:03;;;;;;;6.97;4.05;;;;;;;;;;5100196;28;20497;-86
2022/04/19 11:59:32;;;;;;;9.75;4.30;;;;;;;;;;5098189;28;20161;-87
2022/04/19 12:01:58;;;;;;;6.00;3.80;;;;;;;;;;5096758;28;20032;-85
2022/04/19 12:04:24;;;;;;;11.52;4.68;;;;;;;;;;5099146;28;20338;-86
2022/04/19 12:06:54;;;;;;;8.38;4.63;;;;;;;;;;5080706;28;20032;-86
2022/04/19 12:09:21;;;;;;;7.95;4.43;;;;;;;;;;5110608;28;20043;-89
2022/04/19 12:11:48;;;;;;;9.70;4.07;;;;;;;;;;5097293;28;20097;-87
2022/04/19 12:14:43;;;;;;;8.00;3.97;;;;;;;;;;5082934;28;20031;-88
2022/04/19 12:17:10;;;;;;;10.77;3.80;;;;;;;;;;5100223;28;20054;-84
2022/04/19 12:19:40;;;;;;;6.63;3.70;;;;;;;;;;5109311;28;20040;-86
2022/04/19 12:22:21;;;;;;;12.75;4.68;;;;;;;;;;5077442;28;20036;-85
2022/04/19 12:24:58;;;;;;;18.65;5.47;;;;;;;;;;5077833;28;20358;-88
2022/04/19 12:27:30;;;;;;;12.68;5.47;;;;;;;;;;5098580;28;20169;-87
2022/04/19 12:30:13;;;;;;;11.27;5.70;;;;;;;;;;5097353;28;20085;-85
2022/04/19 12:32:52;;;;;;;13.05;6.15;;;;;;;;;;5091342;28;20028;-86
2022/04/19 12:35:17;;;;;;;15.05;6.57;;;;;;;;;;5103675;28;20220;-86
2022/04/19 12:37:43;;;;;;;14.23;6.40;;;;;;;;;;5093095;28;20063;-85
2022/04/19 12:40:09;;;;;;;12.93;6.00;;;;;;;;;;5113081;28;20032;-89
2022/04/19 12:42:51;;;;;;;9.73;5.60;;;;;;;;;;5114314;28;20063;-86
2022/04/19 12:45:17;;;;;;;9.77;5.85;;;;;;;;;;5109523;28;20127;-88
2022/04/19 12:47:49;;;;;;;9.68;5.53;;;;;;;;;;5107268;28;20368;-85
2022/04/19 12:50:19;;;;;;;14.63;7.57;;;;;;;;;;5110420;28;20024;-86
2022/04/19 12:52:50;;;;;;;10.73;5.88;;;;;;;;;;5097013;28;20032;-85
2022/04/19 12:55:15;;;;;;;17.75;8.27;;;;;;;;;;5111158;28;20035;-85
2022/04/19 13:00:25;;;;;;;28.42;9.90;;;;;;;;;;5113559;28;20031;-83
2022/04/19 13:02:52;;;;;;;15.57;5.53;;;;;;;;;;5111590;28;20024;-82
2022/04/19 13:12:16;;;;;;;13.93;7.20;;;;;;;;;;5102691;28;20020;-80
2022/04/19 13:13:33;;;;;;;15.10;6.93;;;;;;;;;;5094347;28;20034;-79
2022/04/19 13:15:59;;;;;;;9.77;5.25;;;;;;;;;;5094206;28;20111;-87
2022/04/19 13:18:25;;;;;;;41.83;14.73;;;;;;;;;;5076344;28;20046;-88
2022/04/19 13:20:51;;;;;;;8.85;4.75;;;;;;;;;;5109240;28;20035;-82
2022/04/19 13:23:16;;;;;;;8.32;5.13;;;;;;;;;;5115901;28;20028;-81
2022/04/19 13:25:43;;;;;;;11.25;5.57;;;;;;;;;;5116597;28;20008;-86
2022/04/19 13:28:10;;;;;;;8.98;5.03;;;;;;;;;;5113715;28;20093;-85
2022/04/19 13:30:38;;;;;;;8.75;4.93;;;;;;;;;;5110729;28;20019;-83
2022/04/19 13:33:04;;;;;;;10.10;5.40;;;;;;;;;;5112466;28;20043;-87
2022/04/19 13:35:30;;;;;;;9.00;4.90;;;;;;;;;;5109353;28;20032;-86
2022/04/19 13:40:39;;;;;;;7.78;4.40;;;;;;;;;;5103833;28;20039;-85
2022/04/19 13:43:05;;;;;;;7.35;4.53;;;;;;;;;;5104905;28;20008;-85
2022/04/19 13:45:33;;;;;;;8.88;4.75;;;;;;;;;;5107453;28;20442;-86
2022/04/19 13:47:59;;;;;;;10.13;4.90;;;;;;;;;;5112126;28;20513;-85
2022/04/19 13:50:24;;;;;;;10.07;5.30;;;;;;;;;;5111775;28;20051;-79
2022/04/19 13:52:50;;;;;;;7.60;4.40;;;;;;;;;;5114931;28;20027;-87
2022/04/19 13:55:18;;;;;;;11.90;4.60;;;;;;;;;;5105487;28;20569;-87
2022/04/19 13:57:44;;;;;;;9.50;5.00;;;;;;;;;;5105562;28;20494;-87
2022/04/19 14:00:12;;;;;;;7.82;4.53;;;;;;;;;;5101079;28;20031;-84
2022/04/19 14:02:37;;;;;;;14.93;7.63;;;;;;;;;;5103662;28;20028;-86
2022/04/19 14:05:03;;;;;;;18.10;6.80;;;;;;;;;;5104441;28;20028;-87
2022/04/19 14:07:29;;;;;;;7.60;4.60;;;;;;;;;;5101180;28;20081;-87
2022/04/19 14:09:55;;;;;;;16.98;5.60;;;;;;;;;;5103621;28;20433;-87
2022/04/19 14:12:21;;;;;;;10.00;5.07;;;;;;;;;;5111374;28;20047;-84
2022/04/19 14:14:46;;;;;;;9.30;5.32;;;;;;;;;;5098105;28;20076;-87
2022/04/19 14:17:12;;;;;;;8.48;5.07;;;;;;;;;;5102336;28;20478;-86
2022/04/19 14:19:39;;;;;;;8.38;5.35;;;;;;;;;;5100181;28;20058;-89
2022/04/19 14:22:04;;;;;;;12.40;4.97;;;;;;;;;;5098253;28;20028;-88
2022/04/19 14:24:30;;;;;;;8.57;5.05;;;;;;;;;;5096950;28;20060;-92
2022/04/19 14:26:55;;;;;;;10.80;5.68;;;;;;;;;;5096746;28;20520;-88
2022/04/19 14:34:49;;;;;;;11.93;5.20;;;;;;;;;;5095891;28;20077;-89
2022/04/19 14:37:15;;;;;;;23.90;10.98;;;;;;;;;;5095573;28;20427;-81
2022/04/19 14:39:40;;;;;;;12.50;6.55;;;;;;;;;;5095202;28;20445;-82
2022/04/19 14:42:06;;;;;;;10.55;5.80;;;;;;;;;;5095353;28;20093;-83
2022/04/19 14:44:32;;;;;;;10.43;5.68;;;;;;;;;;5078355;28;20028;-83
2022/04/19 14:47:00;;;;;;;11.48;5.70;;;;;;;;;;5096534;28;20360;-92
2022/04/19 14:49:25;;;;;;;12.68;5.82;;;;;;;;;;5105241;28;20020;-91
2022/04/19 14:54:35;;;;;;;7.63;4.82;;;;;;;;;;5105340;28;20463;-90
2022/04/19 14:57:00;;;;;;;12.55;5.32;;;;;;;;;;5103474;28;20028;-90
2022/04/19 14:59:26;;;;;;;10.35;4.60;;;;;;;;;;5086028;28;20047;-90
2022/04/19 15:01:51;;;;;;;9.57;4.93;;;;;;;;;;5105377;28;20058;-92
2022/04/19 15:04:17;;;;;;;9.88;4.97;;;;;;;;;;5109198;28;20024;-91
2022/04/19 15:06:42;;;;;;;7.53;4.05;;;;;;;;;;5110659;28;20039;-92
2022/04/19 15:09:08;;;;;;;10.25;5.40;;;;;;;;;;5118400;28;20013;-83
2022/04/19 15:11:33;;;;;;;14.10;7.15;;;;;;;;;;5098524;28;20086;-85
2022/04/19 15:13:59;;;;;;;9.05;4.95;;;;;;;;;;5119205;28;20020;-88
2022/04/19 15:16:25;;;;;;;8.93;5.32;;;;;;;;;;5118269;28;20008;-87
2022/04/19 15:18:51;;;;;;;8.70;4.85;;;;;;;;;;5116784;28;20028;-79
2022/04/19 15:21:16;;;;;;;10.35;5.05;;;;;;;;;;5118126;28;20028;-79
2022/04/19 15:23:42;;;;;;;14.63;5.70;;;;;;;;;;5100294;28;20016;-91
2022/04/19 15:26:07;;;;;;;9.75;5.50;;;;;;;;;;5118060;28;20062;-89
2022/04/19 15:28:33;;;;;;;10.40;4.80;;;;;;;;;;5117306;28;20011;-85
2022/04/19 15:31:02;;;;;;;9.35;4.63;;;;;;;;;;5113821;28;20047;-89
2022/04/19 15:33:28;;;;;;;9.13;5.43;;;;;;;;;;5109130;28;20084;-82
2022/04/19 15:35:53;;;;;;;11.18;4.68;;;;;;;;;;5107058;28;20028;-91
2022/04/19 15:38:20;;;;;;;11.27;5.55;;;;;;;;;;5070257;28;20028;-89
2022/04/19 15:40:45;;;;;;;10.18;4.90;;;;;;;;;;5107842;28;20024;-89
2022/04/19 15:43:10;;;;;;;8.68;4.82;;;;;;;;;;5107741;28;20116;-92
2022/04/19 15:45:36;;;;;;;9.75;4.95;;;;;;;;;;5103677;28;20083;-90